createdAt,value
2023-01-19T00:00:49.915Z,3.73
2023-01-19T00:03:39.231Z,3.92
2023-01-19T00:06:25.139Z,3.54
2023-01-19T00:09:10.555Z,3.73
2023-01-19T00:11:56.489Z,3.51
2023-01-19T00:14:42.686Z,2.80
2023-01-19T00:17:27.932Z,2.82
2023-01-19T00:20:13.624Z,2.26
2023-01-19T00:22:59.547Z,2.27
2023-01-19T00:25:45.200Z,2.42
2023-01-19T00:28:30.814Z,3.82
2023-01-19T00:31:16.463Z,2.53
2023-01-19T00:34:03.014Z,3.93
2023-01-19T00:36:48.456Z,3.94
2023-01-19T00:39:34.109Z,4.05
2023-01-19T00:42:38.433Z,4.09
2023-01-19T00:45:24.603Z,3.84
2023-01-19T00:48:10.289Z,4.05
2023-01-19T00:50:55.978Z,3.05
2023-01-19T00:53:41.232Z,3.06
2023-01-19T00:56:26.674Z,3.63
2023-01-19T00:59:12.177Z,4.00
2023-01-19T01:01:58.452Z,2.95
2023-01-19T01:04:44.133Z,4.13
2023-01-19T01:07:30.806Z,3.97
2023-01-19T01:10:22.549Z,4.25
2023-01-19T01:13:23.704Z,3.30
2023-01-19T01:16:11.540Z,3.10
2023-01-19T01:18:57.059Z,4.39
2023-01-19T01:21:42.333Z,3.00
2023-01-19T01:24:27.799Z,4.28
2023-01-19T01:27:13.345Z,4.30
2023-01-19T01:29:59.464Z,3.94
2023-01-19T01:32:44.871Z,3.03
2023-01-19T01:35:30.261Z,2.95
2023-01-19T01:38:16.301Z,4.32
2023-01-19T01:41:01.638Z,4.32
2023-01-19T01:43:54.189Z,3.31
2023-01-19T01:46:39.582Z,3.99
2023-01-19T01:49:24.969Z,4.20
2023-01-19T01:52:13.181Z,4.08
2023-01-19T01:54:59.521Z,3.04
2023-01-19T01:57:49.944Z,4.44
2023-01-19T02:00:55.512Z,4.24
2023-01-19T02:03:41.701Z,4.26
2023-01-19T02:06:27.517Z,3.21
2023-01-19T02:09:31.898Z,2.71
2023-01-19T02:12:36.369Z,4.06
2023-01-19T02:15:21.801Z,2.70
2023-01-19T02:18:07.138Z,4.11
2023-01-19T02:21:01.804Z,2.90
2023-01-19T02:23:50.895Z,3.46
2023-01-19T02:26:39.912Z,3.73
2023-01-19T02:29:27.588Z,3.93
2023-01-19T02:32:13.295Z,2.57
2023-01-19T02:34:58.887Z,3.84
2023-01-19T02:37:45.067Z,2.56
2023-01-19T02:40:31.121Z,2.50
2023-01-19T02:43:19.186Z,2.73
2023-01-19T02:46:05.057Z,2.38
2023-01-19T02:48:50.608Z,3.49
2023-01-19T02:51:36.105Z,3.65
2023-01-19T02:54:38.780Z,3.88
2023-01-19T02:57:33.375Z,3.76
2023-01-19T03:00:25.046Z,3.95
2023-01-19T03:03:31.104Z,3.98
2023-01-19T03:06:24.340Z,2.73
2023-01-19T03:09:28.441Z,4.04
2023-01-19T03:12:27.412Z,3.56
2023-01-19T03:15:34.455Z,4.14
2023-01-19T03:18:24.514Z,3.14
2023-01-19T03:21:13.303Z,4.06
2023-01-19T03:24:03.177Z,3.56
2023-01-19T03:26:58.747Z,3.29
2023-01-19T03:29:52.001Z,3.97
2023-01-19T03:32:43.453Z,3.12
2023-01-19T03:35:33.154Z,4.33
2023-01-19T03:38:25.082Z,3.49
2023-01-19T03:41:16.745Z,3.10
2023-01-19T03:44:02.795Z,4.29
2023-01-19T03:46:48.976Z,4.31
2023-01-19T03:49:36.171Z,3.30
2023-01-19T03:52:33.625Z,3.18
2023-01-19T03:55:19.187Z,4.57
2023-01-19T03:58:04.958Z,3.98
2023-01-19T04:00:50.556Z,4.57
2023-01-19T04:03:35.985Z,4.31
2023-01-19T04:06:22.249Z,4.36
2023-01-19T04:09:08.251Z,4.59
2023-01-19T04:11:53.628Z,3.35
2023-01-19T04:14:38.979Z,4.66
2023-01-19T04:17:24.329Z,4.78
2023-01-19T04:20:10.214Z,4.82
2023-01-19T04:23:00.043Z,3.76
2023-01-19T04:25:45.887Z,4.53
2023-01-19T04:28:32.225Z,3.72
2023-01-19T04:31:19.330Z,4.92
2023-01-19T04:34:04.498Z,3.95
2023-01-19T04:36:51.674Z,4.93
2023-01-19T04:39:36.989Z,4.92
2023-01-19T04:42:23.101Z,3.60
2023-01-19T04:45:09.093Z,3.63
2023-01-19T04:47:54.675Z,4.60
2023-01-19T04:50:40.143Z,4.39
2023-01-19T04:53:25.567Z,3.54
2023-01-19T04:56:11.088Z,4.76
2023-01-19T04:58:56.422Z,4.74
2023-01-19T05:01:41.875Z,4.72
2023-01-19T05:04:27.372Z,3.59
2023-01-19T05:07:12.709Z,4.25
2023-01-19T05:09:58.225Z,3.54
2023-01-19T05:12:43.413Z,3.37
2023-01-19T05:15:29.650Z,4.39
2023-01-19T05:18:15.218Z,4.36
2023-01-19T05:21:02.040Z,4.01
2023-01-19T05:23:47.444Z,3.65
2023-01-19T05:26:32.819Z,4.55
2023-01-19T05:29:18.379Z,3.83
2023-01-19T05:32:04.384Z,3.27
2023-01-19T05:34:49.781Z,3.90
2023-01-19T05:37:35.267Z,4.35
2023-01-19T05:40:20.513Z,4.25
2023-01-19T05:43:06.381Z,4.05
2023-01-19T05:45:52.210Z,4.03
2023-01-19T05:48:38.505Z,3.19
2023-01-19T05:51:24.000Z,4.28
2023-01-19T05:54:10.093Z,4.41
2023-01-19T05:56:55.543Z,3.95
2023-01-19T05:59:41.195Z,3.39
2023-01-19T06:02:28.723Z,3.65
2023-01-19T06:05:15.609Z,4.41
2023-01-19T06:08:01.963Z,4.40
2023-01-19T06:10:47.480Z,4.03
2023-01-19T06:13:33.407Z,4.20
2023-01-19T06:16:18.768Z,4.75
2023-01-19T06:19:04.817Z,4.06
2023-01-19T06:21:52.322Z,4.71
2023-01-19T06:24:37.860Z,4.39
2023-01-19T06:27:23.335Z,3.45
2023-01-19T06:30:09.460Z,3.90
2023-01-19T06:32:54.813Z,3.49
2023-01-19T06:35:44.146Z,4.36
2023-01-19T06:38:29.853Z,3.47
2023-01-19T06:41:15.217Z,4.85
2023-01-19T06:44:01.343Z,3.60
2023-01-19T06:46:48.896Z,4.05
2023-01-19T06:49:34.165Z,4.82
2023-01-19T06:52:20.595Z,4.96
2023-01-19T06:55:06.811Z,4.70
2023-01-19T06:57:58.268Z,4.89
2023-01-19T07:00:43.915Z,4.44
2023-01-19T07:03:29.908Z,3.96
2023-01-19T07:06:15.215Z,4.58
2023-01-19T07:09:00.603Z,4.90
2023-01-19T07:11:46.888Z,4.44
2023-01-19T07:14:34.025Z,3.87
2023-01-19T07:17:20.139Z,4.80
2023-01-19T07:20:09.884Z,5.16
2023-01-19T07:22:58.653Z,5.17
2023-01-19T07:25:46.459Z,3.87
2023-01-19T07:28:33.046Z,4.77
2023-01-19T07:31:19.253Z,4.94
2023-01-19T07:34:05.511Z,4.88
2023-01-19T07:36:50.842Z,4.19
2023-01-19T07:39:36.748Z,4.92
2023-01-19T07:42:21.929Z,4.84
2023-01-19T07:45:07.991Z,5.26
2023-01-19T07:47:53.173Z,4.26
2023-01-19T07:50:38.819Z,5.08
2023-01-19T07:53:24.247Z,4.11
2023-01-19T07:56:10.628Z,5.40
2023-01-19T07:58:56.625Z,4.06
2023-01-19T08:01:42.499Z,5.06
2023-01-19T08:04:28.782Z,4.82
2023-01-19T08:07:14.860Z,5.43
2023-01-19T08:10:00.253Z,4.21
2023-01-19T08:12:45.960Z,5.51
2023-01-19T08:15:31.389Z,5.34
2023-01-19T08:18:17.294Z,4.31
2023-01-19T08:21:02.644Z,5.41
2023-01-19T08:23:55.990Z,5.00
2023-01-19T08:26:41.119Z,5.30
2023-01-19T08:29:26.964Z,5.43
2023-01-19T08:32:12.443Z,5.32
2023-01-19T08:34:58.372Z,5.52
2023-01-19T08:37:43.796Z,5.59
2023-01-19T08:40:30.809Z,5.30
2023-01-19T08:43:17.280Z,5.68
2023-01-19T08:46:03.879Z,4.96
2023-01-19T08:48:50.411Z,4.42
2023-01-19T08:51:36.251Z,5.16
2023-01-19T08:54:21.836Z,4.57
2023-01-19T08:57:07.494Z,4.49
2023-01-19T08:59:52.856Z,5.76
2023-01-19T09:02:38.482Z,5.34
2023-01-19T09:05:24.079Z,4.37
2023-01-19T09:08:13.032Z,5.27
2023-01-19T09:10:58.544Z,4.41
2023-01-19T09:13:44.499Z,4.43
2023-01-19T09:16:29.963Z,5.25
2023-01-19T09:19:15.727Z,4.57
2023-01-19T09:22:01.561Z,4.58
2023-01-19T09:24:47.451Z,5.52
2023-01-19T09:27:32.935Z,5.93
2023-01-19T09:30:19.116Z,5.58
2023-01-19T09:33:07.461Z,5.04
2023-01-19T09:35:52.927Z,5.73
2023-01-19T09:38:38.648Z,6.12
2023-01-19T09:41:26.209Z,5.83
2023-01-19T09:44:18.892Z,5.90
2023-01-19T09:47:14.464Z,5.74
2023-01-19T09:50:16.041Z,2.84
2023-01-19T09:53:15.579Z,6.03
2023-01-19T09:56:01.018Z,5.39
2023-01-19T09:58:48.642Z,5.48
2023-01-19T10:01:56.246Z,4.63
2023-01-19T10:04:49.007Z,5.87
2023-01-19T10:07:53.356Z,5.89
2023-01-19T10:10:43.062Z,5.63
2023-01-19T10:13:56.917Z,5.87
2023-01-19T10:16:57.246Z,5.95
2023-01-19T10:19:47.713Z,4.93
2023-01-19T10:22:34.660Z,5.89
2023-01-19T10:25:26.339Z,5.80
2023-01-19T10:28:16.405Z,5.38
2023-01-19T10:31:06.230Z,4.41
2023-01-19T10:33:53.448Z,5.52
2023-01-19T10:36:40.831Z,5.40
2023-01-19T10:39:26.480Z,5.62
2023-01-19T10:42:15.848Z,4.08
2023-01-19T10:45:01.320Z,4.18
2023-01-19T10:47:48.149Z,5.33
2023-01-19T10:50:39.836Z,4.48
2023-01-19T10:53:25.782Z,5.13
2023-01-19T10:56:12.546Z,5.59
2023-01-19T10:59:03.467Z,5.32
2023-01-19T11:02:17.645Z,5.62
2023-01-19T11:05:26.834Z,5.69
2023-01-19T11:08:45.759Z,5.72
2023-01-19T11:11:42.982Z,4.42
2023-01-19T11:14:31.249Z,5.30
2023-01-19T11:17:23.442Z,4.60
2023-01-19T11:20:18.817Z,5.77
2023-01-19T11:23:19.925Z,4.86
2023-01-19T11:26:06.372Z,5.33
2023-01-19T11:28:54.739Z,5.05
2023-01-19T11:31:40.458Z,5.23
2023-01-19T11:34:38.781Z,4.80
2023-01-19T11:37:31.290Z,4.53
2023-01-19T11:40:17.183Z,5.02
2023-01-19T11:43:03.180Z,5.84
2023-01-19T11:45:48.901Z,5.89
2023-01-19T11:49:02.069Z,5.60
2023-01-19T11:52:03.044Z,5.94
2023-01-19T11:55:15.006Z,6.11
2023-01-19T11:58:00.935Z,5.76
2023-01-19T12:00:57.501Z,6.24
2023-01-19T12:04:14.351Z,6.29
2023-01-19T12:07:08.962Z,5.21
2023-01-19T12:10:02.446Z,6.37
2023-01-19T12:12:48.051Z,6.00
2023-01-19T12:15:41.432Z,6.41
2023-01-19T12:18:36.985Z,6.04
2023-01-19T12:21:22.526Z,5.23
2023-01-19T12:24:27.525Z,6.29
2023-01-19T12:27:44.158Z,6.51
2023-01-19T12:30:30.404Z,5.95
2023-01-19T12:33:37.471Z,6.48
2023-01-19T12:36:36.771Z,6.02
2023-01-19T12:39:23.569Z,6.31
2023-01-19T12:42:17.130Z,5.47
2023-01-19T12:45:08.740Z,5.83
2023-01-19T12:47:55.480Z,5.07
2023-01-19T12:50:46.467Z,6.14
2023-01-19T12:53:32.359Z,5.18
2023-01-19T12:56:18.106Z,5.87
2023-01-19T12:59:05.686Z,6.33
2023-01-19T13:02:29.253Z,6.42
2023-01-19T13:05:21.590Z,6.45
2023-01-19T13:08:07.282Z,6.46
2023-01-19T13:11:12.409Z,6.50
2023-01-19T13:13:57.951Z,6.52
2023-01-19T13:16:55.949Z,6.20
2023-01-19T13:20:08.301Z,6.55
2023-01-19T13:23:05.953Z,6.55
2023-01-19T13:25:54.532Z,6.55
2023-01-19T13:28:43.391Z,6.65
2023-01-19T13:31:36.328Z,6.69
2023-01-19T13:34:27.814Z,5.53
2023-01-19T13:37:19.875Z,6.68
2023-01-19T13:40:06.424Z,6.73
2023-01-19T13:42:54.229Z,6.61
2023-01-19T13:45:41.851Z,6.84
2023-01-19T13:48:27.740Z,6.79
2023-01-19T13:51:18.969Z,6.12
2023-01-19T13:54:06.175Z,6.40
2023-01-19T13:56:51.816Z,5.88
2023-01-19T13:59:37.245Z,6.49
2023-01-19T14:02:22.803Z,6.56
2023-01-19T14:05:17.023Z,5.49
2023-01-19T14:08:14.967Z,6.79
2023-01-19T14:11:02.639Z,6.56
2023-01-19T14:13:48.634Z,6.86
2023-01-19T14:16:34.044Z,6.64
2023-01-19T14:19:19.957Z,6.82
2023-01-19T14:22:05.963Z,5.82
2023-01-19T14:24:51.609Z,5.47
2023-01-19T14:27:41.812Z,6.75
2023-01-19T14:30:28.571Z,6.73
2023-01-19T14:33:34.105Z,5.52
2023-01-19T14:36:39.195Z,6.71
2023-01-19T14:39:27.801Z,5.74
2023-01-19T14:42:46.443Z,6.88
2023-01-19T14:45:38.471Z,5.72
2023-01-19T14:48:23.993Z,5.74
2023-01-19T14:51:18.107Z,5.68
2023-01-19T14:54:04.897Z,6.95
2023-01-19T14:56:54.131Z,6.95
2023-01-19T14:59:42.293Z,6.95
2023-01-19T15:02:28.079Z,5.46
2023-01-19T15:05:14.191Z,6.63
2023-01-19T15:08:02.870Z,6.91
2023-01-19T15:10:48.770Z,6.89
2023-01-19T15:13:34.623Z,6.48
2023-01-19T15:16:20.370Z,6.81
2023-01-19T15:19:06.094Z,6.18
2023-01-19T15:21:51.624Z,6.74
2023-01-19T15:24:36.989Z,6.63
2023-01-19T15:27:23.406Z,6.12
2023-01-19T15:30:25.003Z,6.46
2023-01-19T15:33:24.078Z,6.67
2023-01-19T15:36:18.484Z,6.67
2023-01-19T15:39:04.001Z,5.35
2023-01-19T15:42:00.748Z,6.68
2023-01-19T15:44:47.549Z,6.63
2023-01-19T15:47:32.967Z,6.27
2023-01-19T15:50:20.059Z,5.88
2023-01-19T15:53:06.628Z,6.38
2023-01-19T15:55:55.496Z,6.62
2023-01-19T15:58:41.573Z,6.19
2023-01-19T16:01:32.225Z,6.66
2023-01-19T16:04:18.188Z,5.44
2023-01-19T16:07:04.152Z,6.49
2023-01-19T16:09:50.171Z,6.30
2023-01-19T16:12:35.979Z,6.12
2023-01-19T16:15:22.624Z,6.37
2023-01-19T16:18:08.597Z,6.30
2023-01-19T16:20:53.873Z,6.27
2023-01-19T16:23:39.805Z,5.03
2023-01-19T16:26:29.785Z,6.23
2023-01-19T16:29:15.650Z,5.94
2023-01-19T16:32:01.138Z,5.28
2023-01-19T16:34:46.846Z,6.18
2023-01-19T16:37:32.338Z,6.10
2023-01-19T16:40:20.285Z,5.80
2023-01-19T16:43:06.281Z,4.43
2023-01-19T16:46:02.883Z,4.94
2023-01-19T16:48:48.388Z,6.00
2023-01-19T16:51:34.225Z,5.89
2023-01-19T16:54:22.256Z,4.92
2023-01-19T16:57:07.593Z,6.08
2023-01-19T16:59:53.193Z,6.15
2023-01-19T17:02:38.955Z,6.03
2023-01-19T17:05:24.883Z,6.00
2023-01-19T17:08:10.717Z,5.02
2023-01-19T17:10:56.600Z,5.35
2023-01-19T17:13:42.012Z,5.74
2023-01-19T17:16:29.253Z,5.80
2023-01-19T17:19:17.252Z,5.81
2023-01-19T17:22:02.672Z,5.82
2023-01-19T17:24:48.118Z,5.79
2023-01-19T17:27:36.049Z,5.83
2023-01-19T17:30:22.310Z,5.73
2023-01-19T17:33:08.000Z,5.71
2023-01-19T17:35:53.491Z,5.50
2023-01-19T17:38:39.699Z,5.24
2023-01-19T17:41:28.007Z,5.02
2023-01-19T17:44:13.963Z,5.63
2023-01-19T17:47:00.434Z,5.64
2023-01-19T17:49:46.691Z,5.66
2023-01-19T17:52:32.470Z,5.18
2023-01-19T17:55:18.499Z,4.38
2023-01-19T17:58:04.243Z,5.60
2023-01-19T18:00:50.328Z,5.61
2023-01-19T18:03:37.047Z,5.63
2023-01-19T18:06:23.537Z,5.37
2023-01-19T18:09:09.145Z,5.46
2023-01-19T18:11:54.710Z,5.23
2023-01-19T18:14:41.120Z,5.12
2023-01-19T18:17:27.101Z,4.21
2023-01-19T18:20:13.455Z,5.47
2023-01-19T18:22:59.750Z,4.35
2023-01-19T18:25:45.682Z,5.50
2023-01-19T18:28:31.758Z,5.63
2023-01-19T18:31:19.206Z,5.64
2023-01-19T18:34:05.283Z,5.37
2023-01-19T18:36:50.939Z,5.73
2023-01-19T18:39:36.297Z,4.27
2023-01-19T18:42:21.535Z,5.55
2023-01-19T18:45:07.619Z,5.87
2023-01-19T18:47:53.051Z,4.65
2023-01-19T18:50:38.625Z,5.93
2023-01-19T18:53:24.471Z,4.54
2023-01-19T18:56:15.723Z,5.81
2023-01-19T18:59:05.200Z,4.79
2023-01-19T19:01:50.476Z,5.45
2023-01-19T19:04:36.396Z,4.87
2023-01-19T19:07:21.742Z,4.60
2023-01-19T19:10:07.835Z,5.97
2023-01-19T19:12:53.332Z,5.73
2023-01-19T19:15:39.009Z,5.96
2023-01-19T19:18:24.673Z,5.78
2023-01-19T19:21:12.312Z,6.13
2023-01-19T19:23:58.781Z,6.00
2023-01-19T19:26:44.820Z,5.64
2023-01-19T19:29:30.758Z,5.96
2023-01-19T19:32:20.510Z,5.61
2023-01-19T19:35:11.404Z,6.06
2023-01-19T19:37:57.915Z,6.02
2023-01-19T19:40:43.681Z,4.76
2023-01-19T19:43:32.201Z,6.01
2023-01-19T19:46:20.123Z,5.75
2023-01-19T19:49:05.809Z,5.89
2023-01-19T19:51:51.259Z,5.91
2023-01-19T19:54:37.201Z,5.86
2023-01-19T19:57:22.532Z,5.73
2023-01-19T20:00:08.716Z,5.41
2023-01-19T20:02:57.110Z,5.61
2023-01-19T20:06:06.124Z,4.33
2023-01-19T20:08:53.920Z,4.58
2023-01-19T20:11:39.627Z,4.60
2023-01-19T20:14:25.395Z,5.47
2023-01-19T20:17:10.787Z,4.53
2023-01-19T20:19:56.600Z,4.62
2023-01-19T20:22:42.354Z,5.66
2023-01-19T20:25:28.664Z,5.04
2023-01-19T20:28:14.590Z,4.97
2023-01-19T20:31:19.805Z,5.17
2023-01-19T20:34:09.558Z,5.44
2023-01-19T20:36:55.888Z,5.07
2023-01-19T20:39:42.363Z,5.54
2023-01-19T20:42:28.173Z,5.21
2023-01-19T20:45:13.919Z,4.36
2023-01-19T20:47:59.543Z,5.44
2023-01-19T20:50:44.932Z,4.36
2023-01-19T20:53:31.188Z,5.35
2023-01-19T20:56:17.025Z,5.05
2023-01-19T20:59:02.844Z,5.42
2023-01-19T21:01:49.372Z,5.48
2023-01-19T21:04:35.157Z,5.35
2023-01-19T21:07:20.484Z,5.10
2023-01-19T21:10:06.181Z,5.46
2023-01-19T21:12:51.823Z,5.48
2023-01-19T21:15:37.400Z,5.15
2023-01-19T21:18:23.072Z,5.41
2023-01-19T21:21:14.891Z,5.25
2023-01-19T21:24:06.934Z,4.07
2023-01-19T21:26:52.375Z,4.11
2023-01-19T21:29:37.843Z,4.87
2023-01-19T21:32:23.734Z,4.89
2023-01-19T21:35:09.478Z,4.68
2023-01-19T21:37:55.198Z,4.89
2023-01-19T21:40:40.568Z,4.51
2023-01-19T21:43:26.854Z,4.75
2023-01-19T21:46:20.559Z,3.53
2023-01-19T21:49:08.744Z,4.49
2023-01-19T21:51:55.293Z,4.38
2023-01-19T21:54:41.128Z,4.24
2023-01-19T21:57:26.772Z,3.45
2023-01-19T22:00:12.396Z,4.14
2023-01-19T22:03:04.072Z,3.43
2023-01-19T22:05:49.780Z,4.44
2023-01-19T22:08:36.003Z,3.59
2023-01-19T22:11:23.285Z,4.63
2023-01-19T22:14:08.721Z,3.71
2023-01-19T22:16:54.425Z,3.20
2023-01-19T22:19:39.836Z,3.11
2023-01-19T22:22:25.881Z,3.59
2023-01-19T22:25:11.763Z,3.21
2023-01-19T22:27:58.741Z,4.01
2023-01-19T22:30:44.125Z,2.80
2023-01-19T22:33:30.028Z,3.06
2023-01-19T22:36:31.256Z,3.65
2023-01-19T22:39:18.188Z,3.64
2023-01-19T22:42:03.759Z,3.42
2023-01-19T22:44:49.265Z,3.20
2023-01-19T22:47:34.697Z,2.81
2023-01-19T22:50:20.040Z,1.59
2023-01-19T22:53:05.314Z,1.67
2023-01-19T22:55:50.736Z,2.45
2023-01-19T22:58:35.887Z,2.30
2023-01-19T23:01:26.820Z,2.58
2023-01-19T23:04:14.702Z,2.11
2023-01-19T23:07:00.770Z,1.08
2023-01-19T23:09:46.080Z,1.27
2023-01-19T23:12:31.577Z,2.35
2023-01-19T23:15:17.049Z,2.15
2023-01-19T23:18:02.145Z,1.93
2023-01-19T23:20:47.779Z,2.07
2023-01-19T23:23:34.825Z,1.54
2023-01-19T23:26:21.364Z,1.00
2023-01-19T23:29:12.464Z,1.98
2023-01-19T23:31:58.042Z,1.90
2023-01-19T23:34:43.276Z,1.91
2023-01-19T23:37:29.100Z,2.09
2023-01-19T23:40:14.391Z,0.89
2023-01-19T23:42:59.996Z,0.83
2023-01-19T23:45:45.426Z,1.78
2023-01-19T23:48:30.947Z,2.24
2023-01-19T23:51:22.137Z,1.91
2023-01-19T23:54:07.901Z,2.27
2023-01-19T23:56:53.519Z,2.09
2023-01-19T23:59:39.057Z,1.54
